Time;durP1;ratioP1;P1;durP2;ratioP2;P2;SDS_P1;SDS_P2;PMS_P1;PMS_P2;Temp;Humidity;BMP_temperature;BMP_pressure;BME280_temperature;BME280_humidity;BME280_pressure;Samples;Min_cycle;Max_cycle;Signal;HPM_P1;HPM_P2
2023/02/22 00:01:34;;;;;;;0.20;0.20;;;;;;;11.39;33.97;95097.69;5053415;28;20482;-66
2023/02/22 00:04:04;;;;;;;1.50;1.30;;;;;;;11.12;34.93;95101.22;5052653;28;20435;-65
2023/02/22 00:06:30;;;;;;;0.70;0.70;;;;;;;11.53;34.44;95101.44;5051575;28;20506;-65
2023/02/22 00:08:58;;;;;;;1.10;0.77;;;;;;;11.55;34.30;95094.13;5052453;28;20439;-67
2023/02/22 00:11:25;;;;;;;1.30;1.03;;;;;;;11.33;34.43;95098.72;5051546;28;20453;-64
2023/02/22 00:13:55;;;;;;;0.73;0.70;;;;;;;11.43;34.76;95099.56;5052181;28;20540;-65
2023/02/22 00:16:25;;;;;;;0.47;0.47;;;;;;;11.66;34.26;95106.25;5051148;28;20439;-68
2023/02/22 00:18:53;;;;;;;0.87;0.87;;;;;;;11.50;34.72;95096.69;5051265;28;20475;-67
2023/02/22 00:21:20;;;;;;;1.23;1.20;;;;;;;11.64;34.25;95106.47;5051338;28;20451;-64
2023/02/22 00:23:48;;;;;;;2.33;1.63;;;;;;;11.87;34.00;95102.66;5051315;28;20450;-65
2023/02/22 00:26:18;;;;;;;0.10;0.10;;;;;;;11.64;34.24;95095.19;5051385;28;20490;-68
2023/02/22 00:28:55;;;;;;;1.13;1.13;;;;;;;11.30;35.55;95096.59;5052494;28;20966;-66
2023/02/22 00:31:23;;;;;;;0.50;0.50;;;;;;;11.82;34.07;95089.53;5050152;28;20445;-65
2023/02/22 00:33:49;;;;;;;1.10;1.00;;;;;;;11.87;34.28;95090.31;5051317;28;20497;-64
2023/02/22 00:36:16;;;;;;;1.33;1.23;;;;;;;11.89;34.04;95085.59;5049955;28;20454;-65
2023/02/22 00:38:43;;;;;;;0.50;0.50;;;;;;;11.97;33.72;95089.56;5050976;28;20505;-68
2023/02/22 00:41:11;;;;;;;0.30;0.30;;;;;;;11.91;34.31;95088.75;5051030;28;20459;-64
2023/02/22 00:43:38;;;;;;;1.30;1.03;;;;;;;12.07;33.79;95079.06;5051043;28;20443;-68
2023/02/22 00:46:04;;;;;;;11.87;3.03;;;;;;;12.08;33.80;95078.00;5050267;28;20479;-69
2023/02/22 00:48:31;;;;;;;0.97;0.90;;;;;;;11.93;33.72;95064.88;5048440;28;20447;-63
2023/02/22 00:50:58;;;;;;;1.60;1.03;;;;;;;12.00;33.93;95071.47;5048273;28;20432;-66
2023/02/22 00:53:25;;;;;;;0.20;0.20;;;;;;;11.72;33.96;95063.22;5050628;28;20435;-65
2023/02/22 00:55:52;;;;;;;3.63;1.13;;;;;;;11.81;34.29;95072.16;5049299;28;20447;-63
2023/02/22 00:58:20;;;;;;;1.63;0.60;;;;;;;11.61;34.31;95048.44;5049302;28;21269;-63
2023/02/22 01:00:47;;;;;;;0.50;0.50;;;;;;;11.76;34.46;95069.53;5049922;28;20442;-65
2023/02/22 01:03:17;;;;;;;0.37;0.37;;;;;;;11.92;34.39;95064.06;5050395;28;20443;-67
2023/02/22 01:05:45;;;;;;;1.00;1.00;;;;;;;12.02;34.07;95058.06;5049995;28;21230;-70
2023/02/22 01:08:14;;;;;;;0.27;0.27;;;;;;;11.93;34.06;95044.63;5049265;28;20922;-65
2023/02/22 01:10:41;;;;;;;0.60;0.60;;;;;;;11.38;35.09;95051.53;5050137;28;20443;-66
2023/02/22 01:13:10;;;;;;;0.73;0.73;;;;;;;11.77;34.69;95050.13;5050816;28;20450;-68
2023/02/22 01:15:41;;;;;;;0.83;0.83;;;;;;;11.80;34.32;95060.91;5048151;28;20516;-69
2023/02/22 01:18:09;;;;;;;1.60;1.50;;;;;;;11.57;34.88;95055.28;5051029;28;20536;-67
2023/02/22 01:20:36;;;;;;;0.63;0.50;;;;;;;11.13;35.48;95050.34;5049148;28;20837;-69
2023/02/22 01:23:05;;;;;;;0.00;0.00;;;;;;;11.41;35.03;95056.25;5052761;28;20439;-65
2023/02/22 01:25:34;;;;;;;0.30;0.30;;;;;;;11.34;35.20;95055.69;5049114;28;20481;-65
2023/02/22 01:28:03;;;;;;;0.53;0.53;;;;;;;11.55;34.89;95052.13;5049127;28;20435;-66
2023/02/22 01:30:33;;;;;;;0.73;0.73;;;;;;;11.62;35.02;95052.66;5050406;28;20456;-65
2023/02/22 01:33:02;;;;;;;1.87;1.73;;;;;;;11.48;35.25;95056.81;5050340;28;20445;-67
2023/02/22 01:35:32;;;;;;;0.10;0.10;;;;;;;11.36;35.47;95050.97;5050092;28;20447;-65
2023/02/22 01:37:59;;;;;;;0.67;0.67;;;;;;;11.34;35.38;95045.19;5061651;28;20921;-67
2023/02/22 01:40:33;;;;;;;1.00;0.97;;;;;;;11.44;35.47;95061.75;5061178;28;20446;-69
2023/02/22 01:43:17;;;;;;;1.63;1.53;;;;;;;11.38;35.50;95051.53;5049727;28;21026;-67
2023/02/22 01:45:53;;;;;;;0.90;0.90;;;;;;;11.29;35.45;95053.06;5049114;28;20439;-64
2023/02/22 01:48:41;;;;;;;2.50;2.33;;;;;;;10.71;36.95;95057.44;5048648;28;20840;-63
2023/02/22 01:51:15;;;;;;;0.17;0.17;;;;;;;10.78;36.74;95062.47;5048195;28;20478;-64
2023/02/22 01:54:14;;;;;;;1.57;1.47;;;;;;;10.67;36.47;95056.38;5049844;28;20891;-65
2023/02/22 01:56:49;;;;;;;3.83;2.60;;;;;;;9.66;38.10;95059.06;5048754;28;20447;-63
2023/02/22 01:59:18;;;;;;;1.47;1.20;;;;;;;10.11;38.05;95065.59;5048278;28;20478;-65
2023/02/22 02:01:46;;;;;;;1.73;1.00;;;;;;;10.25;37.74;95067.81;5049787;28;20435;-66
2023/02/22 02:04:24;;;;;;;3.97;2.30;;;;;;;10.38;37.32;95062.16;5048296;28;20451;-64
2023/02/22 02:06:57;;;;;;;4.78;1.95;;;;;;;10.61;36.45;95065.22;5055913;28;20469;-64
2023/02/22 02:09:45;;;;;;;1.93;1.23;;;;;;;10.56;36.69;95070.44;5052277;28;20200;-66
2023/02/22 02:12:15;;;;;;;2.70;1.90;;;;;;;10.70;36.18;95061.09;5048718;28;20447;-69
2023/02/22 02:14:42;;;;;;;1.93;1.53;;;;;;;10.91;36.05;95067.28;5049732;28;20523;-65
2023/02/22 02:17:12;;;;;;;1.50;0.70;;;;;;;10.88;36.41;95062.53;5051059;28;20443;-66
2023/02/22 02:20:06;;;;;;;2.63;0.90;;;;;;;10.78;36.59;95067.72;5048884;28;21016;-69
2023/02/22 02:22:51;;;;;;;0.93;0.93;;;;;;;10.71;36.97;95073.16;5048800;28;20442;-68
2023/02/22 02:25:40;;;;;;;14.03;1.77;;;;;;;9.76;38.46;95075.66;5048889;28;20458;-68
2023/02/22 02:28:16;;;;;;;1.07;0.97;;;;;;;10.23;37.80;95072.50;5050367;28;20488;-65
2023/02/22 02:30:56;;;;;;;0.50;0.50;;;;;;;10.39;37.46;95085.47;5050348;28;20443;-66
2023/02/22 02:33:33;;;;;;;3.70;2.00;;;;;;;10.33;37.09;95073.38;5048732;28;20961;-64
2023/02/22 02:36:29;;;;;;;0.93;0.93;;;;;;;9.61;39.08;95078.13;5047098;28;20435;-64
2023/02/22 02:39:10;;;;;;;0.43;0.43;;;;;;;8.90;39.78;95086.09;5049885;28;20867;-68
2023/02/22 02:41:49;;;;;;;0.70;0.70;;;;;;;9.24;39.78;95087.59;5048676;28;20533;-69
2023/02/22 02:44:36;;;;;;;0.60;0.60;;;;;;;9.11;40.25;95088.75;5057073;28;20220;-64
2023/02/22 02:47:25;;;;;;;1.03;0.93;;;;;;;8.36;41.82;95090.22;5051437;28;20486;-66
2023/02/22 02:50:13;;;;;;;0.75;0.75;;;;;;;9.42;39.53;95083.88;5049096;28;20439;-66
2023/02/22 02:52:43;;;;;;;1.73;1.63;;;;;;;9.76;38.91;95087.97;5048853;28;20733;-65
2023/02/22 02:55:11;;;;;;;2.90;2.67;;;;;;;9.81;38.91;95080.19;5047243;28;20316;-63
2023/02/22 02:57:40;;;;;;;2.10;1.90;;;;;;;9.63;39.30;95088.34;5049140;28;21164;-65
2023/02/22 03:00:23;;;;;;;0.85;0.80;;;;;;;9.15;40.16;95076.78;5049590;28;20253;-68
2023/02/22 03:03:25;;;;;;;0.30;0.30;;;;;;;8.92;40.99;95099.72;5053107;28;20365;-65
2023/02/22 03:06:05;;;;;;;2.10;0.98;;;;;;;8.87;40.58;95092.59;5052418;28;20200;-69
2023/02/22 03:08:49;;;;;;;2.17;1.98;;;;;;;9.17;40.08;95087.78;5053325;28;20212;-63
2023/02/22 03:11:27;;;;;;;0.80;0.80;;;;;;;9.41;39.80;95090.16;5050786;28;20254;-64
2023/02/22 03:14:32;;;;;;;0.25;0.22;;;;;;;9.74;39.02;95092.66;5051228;28;20598;-66
2023/02/22 03:17:10;;;;;;;0.65;0.65;;;;;;;9.86;38.54;95085.44;5054337;28;20250;-64
2023/02/22 03:19:49;;;;;;;1.08;0.88;;;;;;;10.18;37.96;95088.97;5051303;28;20262;-66
2023/02/22 03:22:32;;;;;;;0.55;0.55;;;;;;;10.25;38.76;95094.78;5050793;28;20207;-64
2023/02/22 03:25:07;;;;;;;1.02;0.47;;;;;;;10.38;38.10;95089.16;5052775;28;20617;-63
2023/02/22 03:28:01;;;;;;;0.47;0.40;;;;;;;9.76;39.49;95080.13;5050639;28;20244;-68
2023/02/22 03:30:36;;;;;;;0.52;0.52;;;;;;;8.93;41.28;95091.63;5050508;28;20208;-71
2023/02/22 03:33:12;;;;;;;5.22;1.92;;;;;;;9.13;41.15;95080.66;5051235;28;20596;-66
2023/02/22 03:35:44;;;;;;;2.38;2.17;;;;;;;9.13;40.44;95086.69;5051420;28;20216;-63
2023/02/22 03:38:14;;;;;;;0.30;0.30;;;;;;;8.26;42.33;95091.88;5050831;28;20348;-68
2023/02/22 03:40:48;;;;;;;0.22;0.22;;;;;;;8.94;41.50;95095.81;5050304;28;20450;-66
2023/02/22 03:43:24;;;;;;;1.07;1.07;;;;;;;8.96;41.14;95090.34;5050664;28;20200;-65
2023/02/22 03:45:55;;;;;;;0.45;0.43;;;;;;;9.38;40.68;95090.66;5050047;28;20477;-64
2023/02/22 03:48:35;;;;;;;0.40;0.28;;;;;;;9.49;40.14;95090.53;5050601;28;20389;-66
2023/02/22 03:51:04;;;;;;;0.20;0.20;;;;;;;9.49;40.26;95084.53;5050537;28;20204;-68
2023/02/22 03:53:33;;;;;;;6.60;3.53;;;;;;;9.67;39.77;95087.59;5034417;28;20231;-68
2023/02/22 03:56:06;;;;;;;0.50;0.50;;;;;;;9.67;39.47;95086.81;5049887;28;20215;-67
2023/02/22 03:58:35;;;;;;;0.77;0.57;;;;;;;9.85;39.12;95094.34;5050614;28;20254;-68
2023/02/22 04:01:02;;;;;;;2.40;1.95;;;;;;;9.90;39.75;95084.72;5050746;28;20539;-67
2023/02/22 04:03:30;;;;;;;0.70;0.70;;;;;;;10.02;39.23;95084.56;5054496;28;20547;-65
2023/02/22 04:05:56;;;;;;;0.73;0.40;;;;;;;10.03;39.06;95086.16;5051835;28;20438;-65
2023/02/22 04:08:24;;;;;;;0.13;0.13;;;;;;;10.17;38.46;95087.38;5051196;28;20224;-62
2023/02/22 04:10:51;;;;;;;1.13;1.03;;;;;;;10.04;39.01;95093.75;5049409;28;20205;-68
2023/02/22 04:13:21;;;;;;;34.90;3.10;;;;;;;9.78;39.41;95088.53;5050616;28;20479;-66
2023/02/22 04:15:51;;;;;;;0.70;0.70;;;;;;;9.90;39.16;95089.16;5050471;28;20950;-66
2023/02/22 04:18:17;;;;;;;1.53;1.43;;;;;;;9.98;38.84;95083.50;5051036;28;20485;-64
2023/02/22 04:20:46;;;;;;;1.33;1.23;;;;;;;10.04;38.75;95090.34;5040793;28;20450;-70
2023/02/22 04:23:23;;;;;;;0.85;0.30;;;;;;;10.03;38.89;95091.41;5054726;28;20235;-66
2023/02/22 04:25:50;;;;;;;0.47;0.47;;;;;;;9.95;39.26;95097.88;5049107;28;20300;-64
2023/02/22 04:28:17;;;;;;;3.93;3.13;;;;;;;9.85;38.84;95099.59;5049495;28;20220;-63
2023/02/22 04:30:51;;;;;;;0.47;0.47;;;;;;;9.69;39.22;95096.00;5049493;28;20510;-63
2023/02/22 04:33:18;;;;;;;0.93;0.93;;;;;;;9.76;39.20;95106.28;5049850;28;20439;-67
2023/02/22 04:35:45;;;;;;;0.43;0.43;;;;;;;9.70;39.27;95102.81;5049490;28;20682;-64
2023/02/22 04:38:14;;;;;;;0.40;0.40;;;;;;;9.78;38.97;95097.16;5049686;28;20200;-63
2023/02/22 04:40:40;;;;;;;0.40;0.40;;;;;;;9.83;39.02;95112.94;5048904;28;20231;-64
2023/02/22 04:43:08;;;;;;;1.13;1.03;;;;;;;9.76;38.43;95104.44;5049860;28;20451;-65
2023/02/22 04:45:34;;;;;;;0.63;0.63;;;;;;;9.69;39.07;95096.00;5053897;28;20453;-67
2023/02/22 04:48:03;;;;;;;1.85;1.75;;;;;;;9.56;38.47;95100.81;5057494;28;20491;-66
2023/02/22 04:50:30;;;;;;;7.63;2.50;;;;;;;9.41;38.93;95092.78;5048664;28;20719;-63
2023/02/22 04:52:57;;;;;;;1.40;1.30;;;;;;;9.34;38.83;95095.59;5050738;28;20450;-67
2023/02/22 04:55:23;;;;;;;2.47;1.73;;;;;;;9.21;39.75;95094.09;5049222;28;20238;-64
2023/02/22 04:57:50;;;;;;;5.38;2.13;;;;;;;9.21;39.11;95099.31;5060883;28;20438;-65
2023/02/22 05:00:20;;;;;;;2.83;2.10;;;;;;;9.27;39.19;95102.03;5048170;28;20274;-66
2023/02/22 05:02:48;;;;;;;4.73;3.37;;;;;;;8.95;40.07;95105.25;5049477;28;20239;-66
2023/02/22 05:05:20;;;;;;;1.27;1.23;;;;;;;9.11;39.14;95098.41;5050749;28;20546;-65
2023/02/22 05:07:48;;;;;;;1.85;1.75;;;;;;;9.03;39.94;95112.66;5058626;28;20232;-70
2023/02/22 05:10:16;;;;;;;0.70;0.70;;;;;;;9.04;39.67;95114.25;5051389;28;20630;-66
2023/02/22 05:12:43;;;;;;;3.35;2.83;;;;;;;9.04;39.33;95119.50;5058065;28;20534;-68
2023/02/22 05:15:15;;;;;;;2.47;1.90;;;;;;;9.09;39.71;95111.72;5050476;28;20193;-66
2023/02/22 05:17:43;;;;;;;1.67;1.57;;;;;;;8.70;40.49;95102.28;5055793;28;20447;-62
2023/02/22 05:20:29;;;;;;;1.02;1.00;;;;;;;8.77;40.07;95107.31;5049425;28;20470;-63
2023/02/22 05:22:58;;;;;;;4.07;2.45;;;;;;;8.81;40.44;95118.88;5053223;28;20204;-64
2023/02/22 05:25:26;;;;;;;0.73;0.73;;;;;;;8.67;39.73;95118.41;5049405;28;20204;-65
2023/02/22 05:27:55;;;;;;;3.25;2.10;;;;;;;8.86;39.65;95122.38;5059236;28;20744;-63
2023/02/22 05:30:29;;;;;;;1.27;0.80;;;;;;;8.74;40.07;95119.03;5059328;28;20231;-64
2023/02/22 05:32:58;;;;;;;0.32;0.32;;;;;;;8.62;39.95;95134.00;5060057;28;20205;-63
2023/02/22 05:35:26;;;;;;;0.20;0.20;;;;;;;8.68;39.95;95133.06;5049123;28;21021;-65
2023/02/22 05:37:53;;;;;;;2.20;2.00;;;;;;;8.72;40.14;95141.22;5058865;28;20224;-67
2023/02/22 05:40:22;;;;;;;44.03;1.45;;;;;;;8.71;40.38;95150.88;5049056;28;20655;-66
2023/02/22 05:42:50;;;;;;;0.25;0.25;;;;;;;8.85;40.03;95151.34;5056307;28;20204;-64
2023/02/22 05:45:19;;;;;;;0.85;0.80;;;;;;;9.03;39.51;95144.03;5048771;28;20220;-69
2023/02/22 05:47:46;;;;;;;5.60;2.08;;;;;;;9.02;39.82;95155.53;5054890;28;20227;-67
2023/02/22 05:50:14;;;;;;;1.60;1.50;;;;;;;9.03;39.38;95144.03;5048957;28;20292;-67
2023/02/22 05:52:42;;;;;;;1.63;1.52;;;;;;;9.01;39.56;95143.47;5055455;28;20289;-67
2023/02/22 05:55:11;;;;;;;1.08;1.02;;;;;;;9.05;39.51;95151.66;5049123;28;20721;-64
2023/02/22 05:57:38;;;;;;;1.60;1.50;;;;;;;9.27;39.89;95154.31;5050865;28;20212;-64
2023/02/22 06:00:07;;;;;;;1.20;1.15;;;;;;;9.35;39.33;95146.84;5049449;28;20208;-64
2023/02/22 06:02:40;;;;;;;1.20;1.17;;;;;;;9.06;40.54;95159.25;5060914;28;20858;-65
2023/02/22 06:05:07;;;;;;;1.42;0.73;;;;;;;9.25;39.49;95157.19;5053927;28;20200;-62
2023/02/22 06:07:34;;;;;;;2.85;1.38;;;;;;;9.43;39.33;95158.72;5055258;28;20941;-66
2023/02/22 06:10:01;;;;;;;3.10;2.50;;;;;;;9.37;39.39;95164.91;5049711;28;20288;-67
2023/02/22 06:12:28;;;;;;;0.88;0.88;;;;;;;9.17;39.66;95155.75;5057510;28;20219;-66
2023/02/22 06:14:54;;;;;;;7.85;2.45;;;;;;;9.43;39.60;95154.28;5053893;28;20196;-65
2023/02/22 06:17:21;;;;;;;1.27;1.17;;;;;;;9.37;39.69;95157.06;5056626;28;20245;-67
2023/02/22 06:19:48;;;;;;;0.93;0.90;;;;;;;9.66;39.45;95153.25;5065925;28;20298;-65
2023/02/22 06:22:17;;;;;;;1.40;1.30;;;;;;;9.49;39.43;95157.75;5053142;28;20203;-69
2023/02/22 06:24:45;;;;;;;0.43;0.43;;;;;;;9.98;38.68;95146.34;5052567;28;20572;-67
2023/02/22 06:27:12;;;;;;;1.10;1.00;;;;;;;10.20;38.08;95134.81;5053837;28;20524;-66
2023/02/22 06:29:43;;;;;;;0.22;0.22;;;;;;;9.62;39.87;95146.91;5051367;28;20204;-65
2023/02/22 06:32:10;;;;;;;0.20;0.20;;;;;;;10.33;38.69;95149.31;5053621;28;20211;-65
2023/02/22 06:34:36;;;;;;;0.77;0.77;;;;;;;10.10;38.70;95139.16;5048659;28;20447;-65
2023/02/22 06:37:03;;;;;;;0.75;0.75;;;;;;;10.01;39.04;95151.88;5052615;28;20438;-64
2023/02/22 06:39:30;;;;;;;1.02;0.95;;;;;;;10.18;38.23;95151.81;5055528;28;20283;-64
2023/02/22 06:41:58;;;;;;;0.20;0.20;;;;;;;10.37;38.31;95155.66;5050076;28;20625;-66
2023/02/22 06:44:25;;;;;;;0.60;0.33;;;;;;;10.88;37.36;95162.94;5052824;28;20478;-65
2023/02/22 06:46:52;;;;;;;1.13;1.10;;;;;;;11.29;36.97;95152.75;5047238;28;20474;-68
2023/02/22 06:49:19;;;;;;;1.50;1.17;;;;;;;11.42;36.35;95133.94;5052708;28;20471;-65
2023/02/22 06:51:46;;;;;;;0.40;0.30;;;;;;;11.68;36.71;95151.41;5046906;28;20790;-69
2023/02/22 06:54:13;;;;;;;0.57;0.57;;;;;;;11.77;36.26;95155.13;5053604;28;20505;-69
2023/02/22 06:56:40;;;;;;;2.97;1.13;;;;;;;11.77;36.90;95144.63;5047628;28;20453;-70
2023/02/22 06:59:07;;;;;;;2.70;2.33;;;;;;;11.76;36.67;95149.09;5053802;28;20479;-70
2023/02/22 07:01:35;;;;;;;4.07;1.33;;;;;;;11.93;36.22;95151.53;5048702;28;20435;-67
2023/02/22 07:04:02;;;;;;;2.90;2.27;;;;;;;11.86;36.54;95150.97;5051481;28;20492;-68
2023/02/22 07:06:29;;;;;;;3.77;2.93;;;;;;;11.90;36.49;95150.19;5048350;28;20553;-64
2023/02/22 07:08:56;;;;;;;0.97;0.97;;;;;;;11.91;36.44;95146.53;5049674;28;20493;-65
2023/02/22 07:11:23;;;;;;;2.33;2.23;;;;;;;12.02;36.80;95147.34;5048232;28;20588;-63
2023/02/22 07:13:49;;;;;;;2.50;2.30;;;;;;;12.14;36.52;95143.44;5061746;28;20819;-65
2023/02/22 07:16:16;;;;;;;3.70;3.20;;;;;;;12.27;36.84;95154.50;5048564;28;20992;-66
2023/02/22 07:18:43;;;;;;;2.00;1.90;;;;;;;12.44;36.09;95145.38;5059482;28;20481;-65
2023/02/22 07:21:10;;;;;;;3.87;3.57;;;;;;;12.44;36.15;95137.47;5048629;28;20447;-69
2023/02/22 07:23:37;;;;;;;12.23;6.37;;;;;;;12.38;36.15;95145.59;5057957;28;20435;-67
2023/02/22 07:26:04;;;;;;;5.00;3.67;;;;;;;12.61;36.26;95150.38;5048329;28;20553;-66
2023/02/22 07:28:31;;;;;;;5.47;4.50;;;;;;;12.62;35.73;95155.38;5051396;28;21125;-66
2023/02/22 07:30:58;;;;;;;9.30;5.70;;;;;;;12.72;35.85;95152.75;5048100;28;20442;-65
2023/02/22 07:33:25;;;;;;;5.13;4.70;;;;;;;12.79;36.24;95142.75;5049787;28;20475;-67
2023/02/22 07:35:52;;;;;;;6.77;2.90;;;;;;;12.61;35.78;95139.88;5048016;28;20450;-66
2023/02/22 07:38:20;;;;;;;3.40;2.47;;;;;;;12.73;35.53;95133.31;5059484;28;20481;-68
2023/02/22 07:40:46;;;;;;;6.17;5.57;;;;;;;12.99;35.19;95142.75;5050646;28;20447;-63
2023/02/22 07:43:13;;;;;;;3.53;3.23;;;;;;;12.76;35.07;95137.22;5057979;28;20469;-66
2023/02/22 07:45:40;;;;;;;3.40;2.93;;;;;;;12.60;35.50;95139.06;5050256;28;20447;-66
2023/02/22 07:48:07;;;;;;;1.93;1.83;;;;;;;12.97;34.77;95139.59;5060497;28;20489;-66
2023/02/22 07:50:35;;;;;;;3.83;2.90;;;;;;;13.21;34.91;95134.59;5052822;28;20453;-66
2023/02/22 07:53:03;;;;;;;2.13;2.00;;;;;;;13.25;35.20;95138.28;5051597;28;20471;-68
2023/02/22 07:55:31;;;;;;;2.70;2.50;;;;;;;13.51;34.84;95134.56;5051816;28;20471;-66
2023/02/22 07:58:02;;;;;;;3.87;2.40;;;;;;;13.65;34.21;95129.53;5052087;28;20446;-67
2023/02/22 08:00:38;;;;;;;1.13;1.03;;;;;;;13.74;34.51;95127.94;5052152;28;20443;-68
2023/02/22 08:03:07;;;;;;;2.23;1.97;;;;;;;13.88;33.94;95127.06;5052029;28;20442;-65
2023/02/22 08:05:36;;;;;;;1.57;1.50;;;;;;;14.13;33.61;95131.44;5051649;28;20462;-68
2023/02/22 08:08:04;;;;;;;4.90;3.20;;;;;;;14.43;34.13;95131.31;5051714;28;20536;-66
2023/02/22 08:10:33;;;;;;;2.70;2.30;;;;;;;14.55;33.10;95118.56;5051719;28;20880;-63
2023/02/22 08:13:01;;;;;;;3.90;3.30;;;;;;;14.70;34.37;95125.59;5051683;28;20446;-66
2023/02/22 08:15:39;;;;;;;2.53;2.33;;;;;;;14.74;33.35;95122.13;5050998;28;20454;-65
2023/02/22 08:18:09;;;;;;;3.10;1.37;;;;;;;14.99;33.47;95114.00;5051671;28;20447;-65
2023/02/22 08:20:37;;;;;;;2.77;1.90;;;;;;;15.02;31.84;95113.44;5050980;28;20442;-67
2023/02/22 08:23:05;;;;;;;5.80;4.07;;;;;;;15.15;32.58;95107.53;5051902;28;20443;-65
2023/02/22 08:25:32;;;;;;;2.63;1.67;;;;;;;15.49;32.48;95109.34;5051819;28;20537;-70
2023/02/22 08:28:03;;;;;;;2.73;2.53;;;;;;;15.74;32.21;95111.69;5052779;28;20540;-66
2023/02/22 08:30:31;;;;;;;5.37;2.43;;;;;;;15.83;30.99;95108.16;5052104;28;20454;-65
2023/02/22 08:32:58;;;;;;;3.13;2.17;;;;;;;16.00;31.30;95094.47;5051368;28;20527;-63
2023/02/22 08:35:26;;;;;;;2.67;2.47;;;;;;;15.98;31.12;95105.31;5050795;28;21187;-65
2023/02/22 08:37:57;;;;;;;4.60;3.10;;;;;;;16.28;30.99;95090.91;5051281;28;20443;-64
2023/02/22 08:40:27;;;;;;;8.87;4.10;;;;;;;16.13;31.36;95097.19;5050725;28;20427;-66
2023/02/22 08:42:54;;;;;;;4.10;2.60;;;;;;;16.50;31.26;95091.16;5051228;28;20447;-64
2023/02/22 08:45:21;;;;;;;3.10;1.70;;;;;;;16.49;29.78;95081.66;5050715;28;20458;-66
2023/02/22 08:47:48;;;;;;;2.57;2.37;;;;;;;16.42;29.44;95077.78;5051221;28;20513;-66
2023/02/22 08:50:45;;;;;;;2.97;2.00;;;;;;;17.13;29.78;95092.25;5050108;28;20470;-67
2023/02/22 08:53:13;;;;;;;2.23;2.10;;;;;;;17.34;29.78;95084.75;5054160;28;20814;-65
2023/02/22 08:55:41;;;;;;;0.70;0.70;;;;;;;17.49;28.58;95075.78;5050293;28;20471;-64
2023/02/22 08:58:08;;;;;;;8.30;2.40;;;;;;;17.68;28.60;95069.28;5048955;28;20443;-66
2023/02/22 09:00:37;;;;;;;1.67;1.57;;;;;;;17.85;28.46;95076.66;5051639;28;20493;-68
2023/02/22 09:03:08;;;;;;;1.77;1.50;;;;;;;17.88;27.89;95073.41;5051451;28;20527;-68
2023/02/22 09:05:35;;;;;;;1.77;1.67;;;;;;;17.69;28.73;95078.03;5051062;28;20447;-70
2023/02/22 09:08:02;;;;;;;1.33;1.23;;;;;;;17.94;28.22;95074.88;5050292;28;20988;-64
2023/02/22 09:10:32;;;;;;;0.40;0.40;;;;;;;18.11;28.52;95077.69;5051061;28;20504;-64
2023/02/22 09:12:59;;;;;;;1.07;0.97;;;;;;;17.86;27.82;95067.63;5050768;28;20929;-62
2023/02/22 09:15:27;;;;;;;1.13;0.97;;;;;;;18.17;28.11;95074.63;5050668;28;20447;-69
2023/02/22 09:17:54;;;;;;;0.80;0.80;;;;;;;18.36;27.57;95071.84;5050611;28;20446;-66
2023/02/22 09:20:23;;;;;;;1.60;0.80;;;;;;;18.69;27.88;95073.25;5049794;28;21005;-66
2023/02/22 09:22:51;;;;;;;1.27;1.17;;;;;;;18.85;27.80;95069.13;5050482;28;20849;-67
2023/02/22 09:25:19;;;;;;;1.27;1.17;;;;;;;18.45;27.48;95062.13;5051343;28;20470;-63
2023/02/22 09:27:51;;;;;;;1.60;1.50;;;;;;;19.29;27.43;95062.22;5058017;28;21033;-66
2023/02/22 09:30:22;;;;;;;3.77;1.27;;;;;;;19.74;27.17;95059.13;5051197;28;20464;-70
2023/02/22 09:32:52;;;;;;;0.50;0.50;;;;;;;19.79;26.45;95052.88;5050260;28;20524;-63
2023/02/22 09:35:25;;;;;;;0.27;0.27;;;;;;;20.03;27.07;95048.75;5048654;28;20447;-64
2023/02/22 09:37:58;;;;;;;0.57;0.57;;;;;;;20.25;26.35;95044.41;5050978;28;20435;-66
2023/02/22 09:40:31;;;;;;;1.50;1.40;;;;;;;20.25;26.50;95044.41;5049712;28;20561;-62
2023/02/22 09:43:12;;;;;;;1.60;1.40;;;;;;;20.19;26.40;95038.44;5050652;28;20571;-65
2023/02/22 09:45:47;;;;;;;0.63;0.63;;;;;;;19.92;25.92;95052.00;5049571;28;20446;-68
2023/02/22 09:48:15;;;;;;;0.30;0.30;;;;;;;20.09;25.55;95038.72;5050371;28;20501;-65
2023/02/22 09:50:52;;;;;;;0.60;0.60;;;;;;;19.82;26.00;95044.28;5049637;28;20516;-65
2023/02/22 09:53:40;;;;;;;0.57;0.57;;;;;;;19.89;25.32;95031.34;5050417;28;20474;-67
2023/02/22 09:56:16;;;;;;;1.47;0.93;;;;;;;20.33;25.48;95036.41;5050069;28;20438;-66
2023/02/22 09:58:51;;;;;;;7.17;1.60;;;;;;;19.96;25.06;95039.66;5049931;28;20435;-69
2023/02/22 10:01:42;;;;;;;0.67;0.67;;;;;;;20.57;25.01;95031.41;5048325;28;20450;-63
2023/02/22 10:04:34;;;;;;;0.10;0.10;;;;;;;21.50;24.61;95020.88;5050340;28;20895;-63
2023/02/22 10:07:14;;;;;;;0.10;0.10;;;;;;;21.28;23.91;95023.78;5049615;28;20812;-64
2023/02/22 10:09:44;;;;;;;0.40;0.40;;;;;;;20.95;24.11;95016.31;5048912;28;20483;-64
2023/02/22 10:12:16;;;;;;;1.13;0.47;;;;;;;21.00;24.94;95002.84;5049938;28;20447;-68
2023/02/22 10:14:54;;;;;;;2.33;0.83;;;;;;;21.12;24.42;95005.66;5052437;28;20950;-64
2023/02/22 10:17:39;;;;;;;0.40;0.30;;;;;;;20.99;24.56;95001.31;5049109;28;20537;-64
2023/02/22 10:20:43;;;;;;;2.63;1.80;;;;;;;19.97;24.60;94999.44;5049665;28;20466;-65
2023/02/22 10:23:15;;;;;;;0.47;0.47;;;;;;;20.20;24.85;94994.78;5049699;28;20476;-66
2023/02/22 10:25:47;;;;;;;0.23;0.23;;;;;;;20.59;24.12;94991.16;5049432;28;20439;-68
2023/02/22 10:28:20;;;;;;;1.23;1.03;;;;;;;20.90;23.90;94987.19;5049070;28;20541;-66
2023/02/22 10:30:57;;;;;;;0.63;0.63;;;;;;;21.34;24.39;94969.97;5049038;28;20447;-66
2023/02/22 10:33:46;;;;;;;0.30;0.30;;;;;;;21.76;23.22;94971.66;5049367;28;20450;-68
2023/02/22 10:36:22;;;;;;;0.20;0.20;;;;;;;21.92;23.68;94958.53;5048690;28;20458;-69
2023/02/22 10:39:09;;;;;;;0.23;0.23;;;;;;;21.49;23.39;94958.00;5049802;28;20949;-70
2023/02/22 10:41:43;;;;;;;0.40;0.40;;;;;;;21.51;24.17;94955.78;5049383;28;20450;-65
2023/02/22 10:44:10;;;;;;;0.30;0.30;;;;;;;21.30;23.66;94958.38;5049328;28;20442;-70
2023/02/22 10:46:40;;;;;;;2.03;1.63;;;;;;;21.03;24.32;94958.81;5050039;28;20450;-67
2023/02/22 10:49:11;;;;;;;0.20;0.20;;;;;;;20.99;23.98;94942.69;5049474;28;21440;-64
2023/02/22 10:51:38;;;;;;;3.20;0.77;;;;;;;21.35;23.61;94944.13;5049271;28;20953;-64
2023/02/22 10:54:13;;;;;;;0.40;0.40;;;;;;;22.02;24.16;94932.25;5050309;28;20443;-66
2023/02/22 10:56:49;;;;;;;0.20;0.20;;;;;;;22.13;23.24;94938.00;5048800;28;20647;-68
2023/02/22 10:59:36;;;;;;;1.53;0.70;;;;;;;22.08;23.89;94933.63;5049761;28;20579;-68
2023/02/22 11:02:22;;;;;;;0.70;0.57;;;;;;;21.83;23.48;94925.81;5048983;28;20270;-70
2023/02/22 11:04:52;;;;;;;0.97;0.87;;;;;;;21.77;23.26;94929.75;5049087;28;20329;-64
2023/02/22 11:07:26;;;;;;;0.67;0.67;;;;;;;21.37;23.56;94926.69;5048975;28;20208;-67
2023/02/22 11:09:56;;;;;;;0.70;0.70;;;;;;;21.85;23.52;94915.59;5048834;28;20481;-64
2023/02/22 11:12:29;;;;;;;0.10;0.10;;;;;;;21.68;23.27;94905.78;5048564;28;20196;-65
2023/02/22 11:14:57;;;;;;;0.87;0.73;;;;;;;21.53;23.23;94902.94;5048981;28;20296;-66
2023/02/22 11:17:33;;;;;;;0.30;0.30;;;;;;;21.51;23.47;94905.13;5048121;28;20204;-66
2023/02/22 11:20:00;;;;;;;0.37;0.37;;;;;;;21.75;23.72;94907.97;5048904;28;20459;-63
2023/02/22 11:22:39;;;;;;;0.60;0.60;;;;;;;21.85;23.42;94900.38;5052080;28;20712;-64
2023/02/22 11:25:07;;;;;;;0.90;0.87;;;;;;;22.09;23.43;94905.06;5052718;28;20485;-66
2023/02/22 11:27:40;;;;;;;0.20;0.20;;;;;;;22.43;22.84;94888.72;5052254;28;20200;-66
2023/02/22 11:30:27;;;;;;;0.20;0.20;;;;;;;22.41;22.97;94896.25;5052214;28;21178;-66
2023/02/22 11:33:15;;;;;;;0.13;0.13;;;;;;;22.34;23.48;94889.91;5052603;28;20196;-64
2023/02/22 11:35:54;;;;;;;0.30;0.30;;;;;;;21.26;23.32;94884.75;5051681;28;20733;-65
2023/02/22 11:38:29;;;;;;;3.10;1.00;;;;;;;20.98;23.33;94887.81;5052194;28;20215;-65
2023/02/22 11:41:17;;;;;;;0.33;0.33;;;;;;;20.94;23.60;94883.44;5051719;28;20575;-67
2023/02/22 11:43:47;;;;;;;0.10;0.10;;;;;;;20.54;23.36;94877.66;5052654;28;20239;-68
2023/02/22 11:46:27;;;;;;;0.73;0.73;;;;;;;20.88;23.36;94877.50;5052559;28;20442;-65
2023/02/22 11:49:00;;;;;;;0.73;0.60;;;;;;;20.58;23.77;94878.59;5052681;28;20518;-63
2023/02/22 11:51:34;;;;;;;1.07;0.97;;;;;;;21.50;23.11;94868.91;5052249;28;20474;-66
2023/02/22 11:54:36;;;;;;;0.20;0.20;;;;;;;21.87;22.69;94860.03;5052515;28;20848;-67
2023/02/22 11:57:40;;;;;;;0.17;0.17;;;;;;;22.33;22.52;94858.97;5052423;28;20276;-65
2023/02/22 12:00:38;;;;;;;0.30;0.30;;;;;;;22.39;22.17;94857.66;5090260;28;20233;-66